Time;durP1;ratioP1;P1;durP2;ratioP2;P2;SDS_P1;SDS_P2;PMS_P1;PMS_P2;Temp;Humidity;BMP_temperature;BMP_pressure;BME280_temperature;BME280_humidity;BME280_pressure;Samples;Min_cycle;Max_cycle;Signal;HPM_P1;HPM_P2
2022/04/15 00:00:49;;;;;;;59.77;22.87;;;11.50;97.30;;;;;;4978858;28;20652;-80
2022/04/15 00:03:14;;;;;;;56.40;20.77;;;11.50;97.30;;;;;;4994504;28;20731;-81
2022/04/15 00:05:40;;;;;;;50.53;22.73;;;11.50;97.30;;;;;;4978888;28;20212;-80
2022/04/15 00:08:11;;;;;;;54.80;20.43;;;11.50;97.30;;;;;;4999559;28;20253;-80
2022/04/15 00:10:41;;;;;;;51.03;20.40;;;11.50;97.30;;;;;;4996232;28;20240;-78
2022/04/15 00:13:11;;;;;;;50.30;20.83;;;11.50;97.30;;;;;;4997115;28;20409;-79
2022/04/15 00:15:38;;;;;;;48.17;21.03;;;11.60;97.30;;;;;;4997233;28;20520;-81
2022/04/15 00:18:04;;;;;;;50.00;20.47;;;11.60;97.30;;;;;;4997296;28;20440;-80
2022/04/15 00:20:30;;;;;;;50.17;19.77;;;11.60;97.30;;;;;;4998358;28;20417;-80
2022/04/15 00:22:58;;;;;;;51.33;20.07;;;11.60;97.30;;;;;;4997146;28;20190;-80
2022/04/15 00:25:24;;;;;;;45.90;20.13;;;11.60;97.30;;;;;;4996199;28;20202;-79
2022/04/15 00:27:50;;;;;;;47.90;19.73;;;11.50;97.30;;;;;;4995977;28;20484;-80
2022/04/15 00:30:16;;;;;;;45.37;19.37;;;11.50;97.30;;;;;;4978664;28;20441;-80
2022/04/15 00:32:42;;;;;;;45.57;18.73;;;11.50;97.30;;;;;;4992100;28;20429;-81
2022/04/15 00:35:09;;;;;;;43.93;19.10;;;11.50;97.30;;;;;;4995992;28;20980;-80
2022/04/15 00:37:34;;;;;;;46.63;20.00;;;11.50;97.30;;;;;;4984225;28;20232;-81
2022/04/15 00:40:02;;;;;;;49.87;19.23;;;11.50;97.30;;;;;;4977671;28;20433;-79
2022/04/15 00:42:29;;;;;;;47.50;18.03;;;11.50;97.30;;;;;;4977973;28;20790;-81
2022/04/15 00:44:59;;;;;;;47.70;19.37;;;11.50;97.30;;;;;;4977924;28;20445;-79
2022/04/15 00:47:51;;;;;;;39.17;17.00;;;11.40;97.30;;;;;;4978182;28;20418;-81
2022/04/15 00:50:19;;;;;;;39.43;17.73;;;11.40;97.30;;;;;;4977886;28;20501;-82
2022/04/15 00:52:47;;;;;;;44.93;19.10;;;11.40;97.30;;;;;;4978686;28;20453;-80
2022/04/15 00:55:13;;;;;;;38.37;17.80;;;11.40;97.30;;;;;;4978759;28;20975;-81
2022/04/15 00:57:45;;;;;;;45.07;17.43;;;11.30;97.30;;;;;;4994125;28;20422;-82
2022/04/15 01:00:13;;;;;;;37.43;16.80;;;11.30;97.30;;;;;;4976512;28;20423;-82
2022/04/15 01:02:39;;;;;;;39.10;16.63;;;11.30;97.30;;;;;;4977907;28;20497;-82
2022/04/15 01:05:08;;;;;;;42.73;17.87;;;11.30;97.30;;;;;;4976708;28;20442;-81
2022/04/15 01:07:37;;;;;;;48.20;18.43;;;11.30;97.30;;;;;;4976829;28;20806;-81
2022/04/15 01:10:09;;;;;;;38.40;17.03;;;11.30;97.30;;;;;;4977857;28;20564;-80
2022/04/15 01:12:39;;;;;;;40.13;18.30;;;11.30;97.30;;;;;;4977895;28;20437;-80
2022/04/15 01:15:11;;;;;;;34.53;17.37;;;11.30;97.30;;;;;;4977456;28;20821;-81
2022/04/15 01:17:37;;;;;;;36.67;17.57;;;11.30;97.30;;;;;;4977638;28;20426;-81
2022/04/15 01:20:08;;;;;;;37.60;17.30;;;11.20;97.30;;;;;;4976588;28;20430;-81
2022/04/15 01:22:39;;;;;;;38.37;16.73;;;11.20;97.30;;;;;;4976683;28;20450;-80
2022/04/15 01:25:07;;;;;;;39.60;17.83;;;11.20;97.30;;;;;;4977522;28;20481;-80
2022/04/15 01:27:37;;;;;;;41.00;16.77;;;11.20;97.30;;;;;;4976929;28;20504;-81
2022/04/15 01:30:05;;;;;;;40.13;17.23;;;11.20;97.30;;;;;;4976699;28;20525;-81
2022/04/15 01:32:31;;;;;;;39.10;18.93;;;11.20;97.30;;;;;;4982745;28;20484;-81
2022/04/15 01:34:56;;;;;;;39.77;16.70;;;11.10;97.30;;;;;;4997249;28;20939;-79
2022/04/15 01:37:23;;;;;;;40.80;17.37;;;11.10;97.30;;;;;;4999692;28;20181;-80
2022/04/15 01:39:49;;;;;;;43.47;16.00;;;11.10;97.30;;;;;;5000074;28;20181;-78
2022/04/15 01:42:16;;;;;;;37.30;16.50;;;11.10;97.30;;;;;;4999473;28;20450;-81
2022/04/15 01:44:43;;;;;;;36.67;15.77;;;11.00;97.30;;;;;;4999151;28;20464;-83
2022/04/15 01:47:09;;;;;;;36.40;16.93;;;11.00;97.30;;;;;;4997471;28;20435;-82
2022/04/15 01:49:35;;;;;;;30.20;14.47;;;11.00;97.30;;;;;;4999515;28;20416;-82
2022/04/15 01:52:00;;;;;;;35.20;15.57;;;10.90;97.30;;;;;;4997679;28;20997;-83
2022/04/15 01:54:29;;;;;;;39.13;17.20;;;10.90;97.30;;;;;;4997854;28;20196;-82
2022/04/15 01:56:55;;;;;;;33.27;15.40;;;10.80;97.30;;;;;;4998806;28;20181;-81
2022/04/15 01:59:21;;;;;;;35.33;15.50;;;10.80;97.30;;;;;;5001616;28;20513;-81
2022/04/15 02:01:47;;;;;;;38.00;15.67;;;10.70;97.30;;;;;;5032454;28;20472;-82
2022/04/15 02:04:13;;;;;;;32.50;16.27;;;10.70;97.30;;;;;;4998603;28;20513;-83
2022/04/15 02:06:38;;;;;;;37.80;16.17;;;10.60;97.30;;;;;;4998703;28;20277;-82
2022/04/15 02:09:04;;;;;;;35.27;16.50;;;10.60;97.30;;;;;;5000854;28;20178;-82
2022/04/15 02:11:29;;;;;;;38.27;17.77;;;10.50;97.30;;;;;;4998736;28;20355;-82
2022/04/15 02:13:55;;;;;;;36.83;16.03;;;10.50;97.30;;;;;;4999145;28;20209;-82
2022/04/15 02:16:20;;;;;;;34.57;17.17;;;10.40;97.30;;;;;;5015617;28;20264;-79
2022/04/15 02:18:46;;;;;;;39.57;18.60;;;10.40;97.30;;;;;;4999908;28;20178;-82
2022/04/15 02:21:11;;;;;;;43.90;19.30;;;10.40;97.30;;;;;;4998804;28;20174;-80
2022/04/15 02:23:37;;;;;;;37.70;18.50;;;10.40;97.30;;;;;;4999100;28;20174;-81
2022/04/15 02:26:03;;;;;;;40.70;17.93;;;10.40;97.30;;;;;;5000734;28;20392;-81
2022/04/15 02:28:28;;;;;;;39.10;18.20;;;10.30;97.30;;;;;;4999214;28;20183;-81
2022/04/15 02:30:54;;;;;;;36.17;19.60;;;10.30;97.30;;;;;;5000526;28;20196;-81
2022/04/15 02:33:20;;;;;;;38.63;20.03;;;10.30;97.30;;;;;;4998988;28;20174;-81
2022/04/15 02:35:46;;;;;;;36.70;18.30;;;10.30;97.30;;;;;;4999436;28;20421;-80
2022/04/15 02:38:11;;;;;;;34.73;17.83;;;10.30;97.30;;;;;;4981289;28;20175;-81
2022/04/15 02:40:37;;;;;;;35.60;18.97;;;10.30;97.30;;;;;;4979657;28;20183;-80
2022/04/15 02:43:03;;;;;;;43.67;19.20;;;10.30;97.30;;;;;;4979525;28;20178;-81
2022/04/15 02:45:29;;;;;;;36.37;17.67;;;10.20;97.30;;;;;;4978845;28;20542;-81
2022/04/15 02:47:55;;;;;;;39.73;18.23;;;10.20;97.30;;;;;;4978449;28;20410;-79
2022/04/15 02:50:21;;;;;;;35.53;16.70;;;10.20;97.30;;;;;;4979412;28;20182;-81
2022/04/15 02:52:47;;;;;;;34.93;16.77;;;10.10;97.30;;;;;;4979525;28;20429;-78
2022/04/15 02:55:13;;;;;;;34.90;14.90;;;10.10;97.30;;;;;;4977042;28;20704;-79
2022/04/15 02:57:38;;;;;;;30.83;14.70;;;10.10;97.30;;;;;;4977354;28;20429;-80
2022/04/15 03:00:05;;;;;;;30.13;14.30;;;10.10;97.30;;;;;;4978742;28;20181;-81
2022/04/15 03:02:34;;;;;;;32.03;14.37;;;10.10;97.30;;;;;;4978153;28;20265;-82
2022/04/15 03:05:01;;;;;;;30.87;14.73;;;10.10;97.30;;;;;;4978009;28;20449;-81
2022/04/15 03:07:26;;;;;;;26.97;13.90;;;10.00;97.30;;;;;;4980505;28;20425;-81
2022/04/15 03:09:52;;;;;;;31.87;14.63;;;10.00;97.30;;;;;;4979175;28;21056;-79
2022/04/15 03:12:18;;;;;;;29.33;14.30;;;10.00;97.30;;;;;;4980466;28;20269;-80
2022/04/15 03:14:43;;;;;;;26.10;13.20;;;9.90;97.30;;;;;;4992963;28;20202;-80
2022/04/15 03:17:11;;;;;;;32.60;13.57;;;9.90;97.30;;;;;;4987952;28;20672;-81
2022/04/15 03:19:37;;;;;;;23.53;12.93;;;9.80;97.30;;;;;;4978118;28;20183;-81
2022/04/15 03:22:05;;;;;;;21.37;11.40;;;9.80;97.30;;;;;;4977601;28;20481;-79
2022/04/15 03:24:30;;;;;;;19.30;10.67;;;9.70;97.30;;;;;;4976872;28;20194;-80
2022/04/15 03:26:56;;;;;;;20.30;10.63;;;9.70;97.30;;;;;;4977267;28;20449;-80
2022/04/15 03:29:22;;;;;;;20.57;10.87;;;9.60;97.30;;;;;;4977742;28;20947;-81
2022/04/15 03:31:48;;;;;;;19.73;10.17;;;9.50;97.30;;;;;;4978995;28;20261;-81
2022/04/15 03:34:13;;;;;;;21.73;11.23;;;9.50;97.30;;;;;;4979261;28;20194;-81
2022/04/15 03:36:40;;;;;;;20.60;10.77;;;9.50;97.30;;;;;;4979579;28;20175;-81
2022/04/15 03:39:06;;;;;;;20.87;9.40;;;9.40;97.30;;;;;;4977978;28;20418;-81
2022/04/15 03:41:31;;;;;;;20.97;10.97;;;9.40;97.30;;;;;;4978370;28;20452;-80
2022/04/15 03:43:57;;;;;;;19.00;10.20;;;9.30;97.30;;;;;;4976775;28;20264;-80
2022/04/15 03:46:22;;;;;;;21.83;10.90;;;9.30;97.30;;;;;;4976914;28;20600;-78
2022/04/15 03:48:48;;;;;;;23.63;10.63;;;9.30;97.30;;;;;;4977769;28;20187;-81
2022/04/15 03:51:14;;;;;;;27.27;9.97;;;9.20;97.30;;;;;;4977664;28;20211;-80
2022/04/15 03:53:39;;;;;;;20.43;10.27;;;9.20;97.30;;;;;;4978337;28;20179;-81
2022/04/15 03:56:08;;;;;;;23.90;12.30;;;9.20;97.30;;;;;;4977676;28;20221;-79
2022/04/15 03:58:35;;;;;;;23.70;11.80;;;9.20;97.30;;;;;;4979309;28;20178;-80
2022/04/15 04:01:01;;;;;;;23.30;11.50;;;9.10;97.30;;;;;;4976639;28;20472;-81
2022/04/15 04:03:26;;;;;;;22.67;10.87;;;9.10;97.30;;;;;;4977810;28;20434;-81
2022/04/15 04:05:52;;;;;;;26.47;11.60;;;9.10;97.30;;;;;;4976532;28;20246;-81
2022/04/15 04:08:18;;;;;;;23.33;10.87;;;9.10;97.30;;;;;;4975560;28;20553;-81
2022/04/15 04:10:43;;;;;;;27.60;12.70;;;9.10;97.30;;;;;;4977091;28;20209;-81
2022/04/15 04:13:09;;;;;;;27.60;13.10;;;9.10;97.30;;;;;;4975822;28;20171;-81
2022/04/15 04:15:35;;;;;;;25.93;11.50;;;9.10;97.30;;;;;;4975022;28;20194;-79
2022/04/15 04:18:00;;;;;;;23.40;13.10;;;9.10;97.30;;;;;;4973802;28;20418;-78
2022/04/15 04:20:27;;;;;;;22.60;11.73;;;9.10;97.30;;;;;;4972105;28;20273;-79
2022/04/15 04:22:53;;;;;;;26.20;12.43;;;9.00;97.30;;;;;;4973275;28;20596;-79
2022/04/15 04:25:18;;;;;;;25.60;11.10;;;9.10;97.30;;;;;;4976002;28;20438;-79
2022/04/15 04:27:45;;;;;;;25.23;11.57;;;9.10;97.30;;;;;;4974285;28;20180;-79
2022/04/15 04:30:15;;;;;;;25.60;12.00;;;9.10;97.30;;;;;;4974951;28;20177;-80
2022/04/15 04:32:50;;;;;;;29.10;12.47;;;9.10;97.30;;;;;;4975629;28;20438;-80
2022/04/15 04:35:18;;;;;;;18.17;10.23;;;9.10;97.30;;;;;;4974594;28;20448;-77
2022/04/15 04:37:44;;;;;;;24.57;10.10;;;9.10;97.30;;;;;;4975091;28;20421;-79
2022/04/15 04:40:10;;;;;;;22.20;10.40;;;9.10;97.30;;;;;;4975098;28;20427;-79
2022/04/15 04:42:35;;;;;;;23.60;10.87;;;9.10;97.30;;;;;;4974574;28;20920;-80
2022/04/15 04:45:01;;;;;;;26.10;10.70;;;9.10;97.30;;;;;;4969186;28;20434;-80
2022/04/15 04:47:28;;;;;;;19.33;10.83;;;9.10;97.30;;;;;;4969146;28;20728;-80
2022/04/15 04:49:55;;;;;;;29.67;11.80;;;9.20;97.30;;;;;;4972327;28;20484;-80
2022/04/15 04:52:23;;;;;;;20.23;11.03;;;9.20;97.30;;;;;;4975621;28;20446;-81
2022/04/15 04:54:49;;;;;;;21.43;11.43;;;9.20;97.30;;;;;;4974109;28;20804;-80
2022/04/15 04:57:14;;;;;;;22.50;10.47;;;9.10;97.30;;;;;;4972227;28;20413;-80
2022/04/15 04:59:40;;;;;;;25.83;11.57;;;9.10;97.30;;;;;;4974190;28;20407;-80
2022/04/15 05:02:06;;;;;;;20.23;11.07;;;9.10;97.30;;;;;;4976838;28;20313;-80
2022/04/15 05:04:31;;;;;;;24.30;11.60;;;9.10;97.30;;;;;;4974720;28;20203;-80
2022/04/15 05:06:57;;;;;;;28.27;11.67;;;9.10;97.30;;;;;;4976273;28;20190;-79
2022/04/15 05:09:23;;;;;;;22.03;10.80;;;9.10;97.30;;;;;;4978235;28;20186;-81
2022/04/15 05:11:51;;;;;;;22.23;10.60;;;9.10;97.30;;;;;;4989167;28;20205;-81
2022/04/15 05:14:17;;;;;;;24.97;11.60;;;9.10;97.30;;;;;;4985580;28;20208;-81
2022/04/15 05:16:43;;;;;;;22.67;10.80;;;9.10;97.30;;;;;;4981941;28;20418;-80
2022/04/15 05:19:09;;;;;;;25.90;10.80;;;9.10;97.30;;;;;;4974142;28;20425;-80
2022/04/15 05:21:35;;;;;;;25.23;12.20;;;9.00;97.30;;;;;;4974644;28;20414;-82
2022/04/15 05:24:01;;;;;;;20.93;12.10;;;9.00;97.30;;;;;;4974940;28;20202;-81
2022/04/15 05:26:29;;;;;;;20.53;11.30;;;9.00;97.30;;;;;;4972070;28;20206;-81
2022/04/15 05:28:54;;;;;;;22.10;10.30;;;8.90;97.30;;;;;;4955384;29;20943;-80
2022/04/15 05:31:20;;;;;;;16.13;8.80;;;8.80;97.30;;;;;;4957792;28;20454;-81
2022/04/15 05:33:46;;;;;;;19.53;9.10;;;8.80;97.30;;;;;;4980494;28;20208;-81
2022/04/15 05:36:11;;;;;;;19.77;7.90;;;8.80;97.30;;;;;;4981009;28;20233;-80
2022/04/15 05:38:37;;;;;;;16.73;8.50;;;8.70;97.30;;;;;;4975212;28;20601;-79
2022/04/15 05:41:02;;;;;;;14.63;7.93;;;8.70;97.30;;;;;;4974166;28;20191;-79
2022/04/15 05:43:28;;;;;;;12.33;7.20;;;8.70;97.30;;;;;;4974678;28;20178;-79
2022/04/15 05:45:54;;;;;;;17.00;9.17;;;8.60;97.30;;;;;;4972758;28;20542;-79
2022/04/15 05:48:19;;;;;;;12.50;6.77;;;8.60;97.30;;;;;;4974670;28;20547;-80
2022/04/15 05:50:45;;;;;;;14.97;7.47;;;8.60;97.30;;;;;;4974466;28;20202;-79
2022/04/15 05:53:14;;;;;;;14.57;7.73;;;8.60;97.30;;;;;;4974692;28;20218;-79
2022/04/15 05:55:39;;;;;;;18.40;7.83;;;8.60;97.30;;;;;;4974701;28;20198;-78
2022/04/15 05:58:07;;;;;;;14.63;6.93;;;8.70;97.30;;;;;;4975712;28;20553;-80
2022/04/15 06:00:33;;;;;;;14.43;6.80;;;8.70;97.30;;;;;;4974278;28;20641;-80
2022/04/15 06:02:59;;;;;;;18.73;7.70;;;8.70;97.30;;;;;;4974607;28;20473;-79
2022/04/15 06:05:24;;;;;;;17.00;8.10;;;8.70;97.30;;;;;;4974482;28;20226;-79
2022/04/15 06:07:52;;;;;;;15.00;8.10;;;8.70;97.30;;;;;;4968948;28;20186;-80
2022/04/15 06:10:17;;;;;;;16.57;8.23;;;8.80;97.30;;;;;;5017292;28;20577;-79
2022/04/15 06:12:57;;;;;;;16.30;8.70;;;8.80;97.30;;;;;;4995108;28;20495;-79
2022/04/15 06:15:33;;;;;;;16.13;7.30;;;8.80;97.30;;;;;;4993688;28;20280;-79
2022/04/15 06:18:00;;;;;;;14.20;7.20;;;8.90;97.30;;;;;;4992792;28;20436;-78
2022/04/15 06:20:27;;;;;;;17.83;6.93;;;8.90;97.30;;;;;;4974829;28;20445;-79
2022/04/15 06:22:53;;;;;;;14.10;7.00;;;8.90;97.30;;;;;;4975337;28;20476;-79
2022/04/15 06:25:18;;;;;;;13.40;6.43;;;9.00;97.30;;;;;;4977572;28;20955;-79
2022/04/15 06:27:44;;;;;;;12.10;6.13;;;9.00;97.30;;;;;;4977578;28;20174;-79
2022/04/15 06:30:10;;;;;;;12.40;6.10;;;9.00;97.30;;;;;;4977296;28;20182;-81
2022/04/15 06:32:36;;;;;;;9.93;5.33;;;9.00;97.30;;;;;;4979120;28;20260;-79
2022/04/15 06:35:03;;;;;;;11.93;5.93;;;9.10;97.30;;;;;;4977096;28;20629;-80
2022/04/15 06:37:28;;;;;;;9.00;5.40;;;9.20;97.30;;;;;;4977003;28;20568;-80
2022/04/15 06:39:54;;;;;;;14.07;5.97;;;9.30;97.30;;;;;;4977672;28;20444;-79
2022/04/15 06:42:24;;;;;;;12.20;5.50;;;9.30;97.30;;;;;;4958908;28;20211;-79
2022/04/15 06:44:50;;;;;;;11.90;6.20;;;9.30;97.30;;;;;;4957176;28;20820;-80
2022/04/15 06:47:16;;;;;;;13.60;6.37;;;9.30;97.30;;;;;;4958541;28;20420;-80
2022/04/15 06:49:46;;;;;;;13.50;6.07;;;9.20;97.30;;;;;;4958265;28;20426;-79
2022/04/15 06:52:13;;;;;;;13.57;6.70;;;9.10;97.30;;;;;;4957664;28;20463;-80
2022/04/15 06:54:39;;;;;;;12.53;5.73;;;9.10;97.30;;;;;;4958941;28;20953;-79
2022/04/15 06:57:05;;;;;;;10.13;5.93;;;9.20;97.30;;;;;;4958244;28;20465;-78
2022/04/15 06:59:31;;;;;;;13.80;9.10;;;9.30;97.30;;;;;;4973745;28;20215;-79
2022/04/15 07:01:59;;;;;;;17.87;7.30;;;9.40;97.30;;;;;;4989232;28;20493;-81
2022/04/15 07:04:25;;;;;;;9.87;6.37;;;9.50;97.30;;;;;;4958938;28;20677;-79
2022/04/15 07:06:51;;;;;;;15.83;5.03;;;9.60;97.30;;;;;;4989290;28;20579;-80
2022/04/15 07:09:16;;;;;;;10.40;5.70;;;9.50;97.30;;;;;;4976397;28;20461;-80
2022/04/15 07:11:42;;;;;;;12.53;5.93;;;9.50;97.30;;;;;;4976449;28;20466;-79
2022/04/15 07:14:07;;;;;;;8.13;5.00;;;9.40;97.30;;;;;;4976365;28;20202;-81
2022/04/15 07:16:34;;;;;;;13.50;6.50;;;9.30;97.30;;;;;;4975981;28;20717;-78
2022/04/15 07:19:04;;;;;;;10.00;5.37;;;9.40;97.30;;;;;;4975319;28;20189;-79
2022/04/15 07:21:39;;;;;;;9.47;4.90;;;9.30;97.30;;;;;;4975141;28;20440;-79
2022/04/15 07:24:06;;;;;;;7.30;4.30;;;9.50;97.30;;;;;;4990501;28;20437;-77
2022/04/15 07:26:32;;;;;;;8.60;4.40;;;9.60;97.30;;;;;;4972325;28;20939;-77
2022/04/15 07:28:58;;;;;;;7.90;4.33;;;9.80;97.30;;;;;;4973073;28;20785;-78
2022/04/15 07:31:24;;;;;;;5.33;3.50;;;9.80;97.30;;;;;;4974808;28;20462;-77
2022/04/15 07:33:51;;;;;;;7.97;4.00;;;9.90;97.30;;;;;;4974363;28;20202;-77
2022/04/15 07:37:03;;;;;;;5.93;3.73;;;9.80;97.30;;;;;;4974656;28;20426;-79
2022/04/15 07:39:05;;;;;;;7.40;3.73;;;9.70;97.30;;;;;;4975607;28;20433;-78
2022/04/15 07:41:30;;;;;;;9.43;4.30;;;9.70;97.30;;;;;;4973328;28;20785;-79
2022/04/15 07:43:56;;;;;;;7.10;3.87;;;9.70;97.30;;;;;;4974979;28;20537;-79
2022/04/15 07:46:22;;;;;;;9.30;3.90;;;9.60;97.30;;;;;;4975405;28;20183;-79
2022/04/15 07:48:47;;;;;;;7.90;3.97;;;9.50;97.30;;;;;;4975429;28;20633;-79
2022/04/15 07:51:13;;;;;;;6.57;4.13;;;9.60;97.30;;;;;;4974736;28;20249;-78
2022/04/15 07:53:39;;;;;;;7.73;3.53;;;9.60;97.30;;;;;;4974802;28;20649;-78
2022/04/15 07:56:05;;;;;;;4.50;2.97;;;9.70;97.30;;;;;;4974225;28;20206;-80
2022/04/15 07:58:31;;;;;;;10.17;4.23;;;9.60;97.30;;;;;;4974834;28;20179;-79
2022/04/15 08:00:59;;;;;;;9.33;3.70;;;9.60;97.30;;;;;;4973466;28;20473;-77
2022/04/15 08:03:26;;;;;;;7.50;4.20;;;9.70;97.30;;;;;;4973273;28;20422;-77
2022/04/15 08:05:52;;;;;;;7.30;4.30;;;9.70;97.30;;;;;;4973952;28;20422;-77
2022/04/15 08:08:18;;;;;;;5.37;3.90;;;9.70;97.30;;;;;;4974563;28;20456;-78
2022/04/15 08:10:44;;;;;;;8.17;4.30;;;9.70;97.30;;;;;;4974533;28;21011;-78
2022/04/15 08:13:09;;;;;;;9.60;3.87;;;9.80;97.30;;;;;;4973544;28;20552;-79
2022/04/15 08:15:35;;;;;;;7.03;3.80;;;9.70;97.30;;;;;;4973704;28;20337;-79
2022/04/15 08:18:01;;;;;;;9.00;4.27;;;9.60;97.30;;;;;;4973822;28;20178;-79
2022/04/15 08:20:26;;;;;;;6.57;3.93;;;9.60;97.30;;;;;;5008807;28;20620;-80
2022/04/15 08:22:52;;;;;;;5.13;3.43;;;9.60;97.30;;;;;;4974870;28;20414;-80
2022/04/15 08:25:18;;;;;;;5.90;3.60;;;9.60;97.30;;;;;;4981874;28;20279;-78
2022/04/15 08:27:43;;;;;;;8.10;4.50;;;9.60;97.30;;;;;;4972963;28;20568;-78
2022/04/15 08:30:09;;;;;;;6.87;4.10;;;9.50;97.30;;;;;;4980610;28;20174;-79
2022/04/15 08:32:35;;;;;;;7.50;3.83;;;9.50;97.30;;;;;;4985887;28;20212;-78
2022/04/15 08:35:02;;;;;;;5.40;3.00;;;9.50;97.30;;;;;;4983965;28;20504;-78
2022/04/15 08:37:28;;;;;;;3.67;2.40;;;9.50;97.30;;;;;;4983792;28;20668;-79
2022/04/15 08:39:54;;;;;;;3.40;2.80;;;9.50;97.30;;;;;;4981660;28;20435;-78
2022/04/15 08:42:20;;;;;;;3.77;2.40;;;9.50;97.30;;;;;;4974768;28;20313;-78
2022/04/15 08:44:49;;;;;;;4.97;2.80;;;9.70;97.30;;;;;;4973989;28;20827;-78
2022/04/15 08:47:15;;;;;;;4.03;2.97;;;9.70;97.30;;;;;;4980364;28;20470;-77
2022/04/15 08:49:40;;;;;;;5.60;3.40;;;9.80;97.30;;;;;;4974829;28;20592;-78
2022/04/15 08:52:09;;;;;;;4.33;2.77;;;9.80;97.30;;;;;;4976067;28;20202;-79
2022/04/15 08:54:35;;;;;;;4.13;3.10;;;9.80;97.30;;;;;;4992054;28;20202;-80
2022/04/15 08:57:01;;;;;;;5.83;3.57;;;9.90;97.30;;;;;;4973514;28;20779;-79
2022/04/15 08:59:26;;;;;;;5.00;3.40;;;9.90;97.30;;;;;;4983627;28;20260;-79
2022/04/15 09:01:52;;;;;;;5.60;3.80;;;9.90;97.30;;;;;;4986993;28;20660;-79
2022/04/15 09:04:18;;;;;;;5.67;3.60;;;9.90;97.30;;;;;;4990326;28;20440;-79
2022/04/15 09:06:44;;;;;;;4.50;3.10;;;9.90;97.30;;;;;;4989246;28;20213;-79
2022/04/15 09:09:14;;;;;;;3.83;2.83;;;10.00;97.30;;;;;;4989759;28;20430;-80
2022/04/15 09:11:41;;;;;;;3.60;2.60;;;10.10;97.30;;;;;;4973482;28;20472;-79
2022/04/15 09:14:14;;;;;;;4.03;3.20;;;10.20;97.30;;;;;;4974290;28;20437;-79
2022/04/15 09:16:41;;;;;;;3.87;2.80;;;10.30;97.30;;;;;;4993183;28;20440;-80
2022/04/15 09:19:08;;;;;;;3.40;2.83;;;10.40;97.30;;;;;;4986273;28;20425;-79
2022/04/15 09:21:34;;;;;;;5.87;2.83;;;10.50;97.30;;;;;;4984845;28;20486;-80
2022/04/15 09:24:00;;;;;;;4.93;3.07;;;10.70;97.30;;;;;;4993924;28;20867;-79
2022/04/15 09:26:26;;;;;;;3.90;2.70;;;10.80;97.30;;;;;;4993118;28;20420;-78
2022/04/15 09:28:55;;;;;;;3.73;2.70;;;10.90;97.30;;;;;;4996151;28;20189;-79
2022/04/15 09:31:23;;;;;;;5.70;3.00;;;10.90;97.30;;;;;;4985792;28;20202;-80
2022/04/15 09:33:59;;;;;;;4.97;3.20;;;10.80;97.30;;;;;;4973458;28;20437;-80
2022/04/15 09:36:36;;;;;;;4.03;2.83;;;10.80;97.30;;;;;;4989558;28;20425;-80
2022/04/15 09:39:14;;;;;;;4.23;2.93;;;10.70;97.30;;;;;;4986077;28;20444;-80
2022/04/15 09:42:02;;;;;;;4.27;2.80;;;10.70;97.30;;;;;;4983347;28;20429;-79
2022/04/15 09:44:32;;;;;;;4.10;3.40;;;10.60;97.30;;;;;;4977221;28;20442;-78
2022/04/15 09:47:03;;;;;;;9.90;3.20;;;10.50;97.30;;;;;;5002012;28;20418;-79
2022/04/15 09:49:32;;;;;;;4.33;3.10;;;10.50;97.30;;;;;;5008890;28;20978;-79
2022/04/15 09:51:59;;;;;;;11.33;3.57;;;10.50;97.30;;;;;;4983069;28;20458;-79
2022/04/15 09:54:26;;;;;;;5.43;3.27;;;10.50;97.30;;;;;;4978152;28;20869;-79
2022/04/15 09:56:54;;;;;;;6.17;3.50;;;10.50;97.30;;;;;;4984056;28;20478;-80
2022/04/15 09:59:23;;;;;;;6.07;3.30;;;10.40;97.30;;;;;;4987282;28;20451;-78
2022/04/15 10:01:54;;;;;;;4.97;3.00;;;10.30;97.30;;;;;;5008645;28;20469;-79
2022/04/15 10:04:20;;;;;;;4.87;3.47;;;10.30;97.30;;;;;;5012961;28;20527;-79
2022/04/15 10:06:46;;;;;;;3.00;2.77;;;10.30;97.30;;;;;;4981009;28;20568;-79
2022/04/15 10:09:13;;;;;;;3.17;2.50;;;10.30;97.30;;;;;;4988914;28;20186;-79
2022/04/15 10:11:44;;;;;;;3.97;3.10;;;10.20;97.30;;;;;;4993174;28;20474;-78
2022/04/15 10:14:11;;;;;;;5.37;3.10;;;10.20;97.30;;;;;;4991069;28;20437;-79
2022/04/15 10:16:41;;;;;;;4.70;3.20;;;10.10;97.30;;;;;;4988068;28;20484;-79
2022/04/15 10:19:08;;;;;;;4.40;2.97;;;10.10;97.30;;;;;;4980252;28;20418;-79
2022/04/15 10:21:45;;;;;;;4.10;3.00;;;10.10;97.30;;;;;;4960574;28;20763;-78
2022/04/15 10:24:11;;;;;;;5.70;3.50;;;10.10;97.30;;;;;;4954916;28;20493;-77
2022/04/15 10:26:45;;;;;;;4.10;3.10;;;10.20;97.30;;;;;;4987682;28;20436;-78
2022/04/15 10:29:12;;;;;;;5.67;3.23;;;10.30;97.30;;;;;;4955644;29;20422;-78
2022/04/15 10:31:42;;;;;;;4.30;3.23;;;10.40;97.30;;;;;;4956103;28;20454;-78
2022/04/15 10:34:12;;;;;;;5.23;3.13;;;10.40;97.30;;;;;;4956056;28;20439;-78
2022/04/15 10:36:42;;;;;;;4.93;3.40;;;10.40;97.30;;;;;;4962258;28;20418;-78
2022/04/15 10:39:09;;;;;;;4.77;3.27;;;10.40;97.30;;;;;;4978324;28;20418;-79
2022/04/15 10:41:46;;;;;;;4.93;3.70;;;10.50;97.30;;;;;;5010712;28;20417;-80
2022/04/15 10:44:13;;;;;;;5.13;3.80;;;10.50;97.30;;;;;;5010038;28;20455;-79
2022/04/15 10:46:38;;;;;;;5.23;3.77;;;10.50;97.30;;;;;;5009878;28;20441;-79
2022/04/15 10:49:22;;;;;;;6.70;4.60;;;10.60;97.30;;;;;;4976468;28;20614;-78
2022/04/15 10:51:51;;;;;;;6.67;4.23;;;10.60;97.30;;;;;;4976152;28;20222;-79
2022/04/15 10:54:35;;;;;;;6.80;4.23;;;10.70;97.30;;;;;;4975753;28;20429;-78
2022/04/15 10:57:15;;;;;;;6.53;3.87;;;10.70;97.30;;;;;;4977513;28;20408;-79
2022/04/15 11:02:50;;;;;;;5.07;3.73;;;10.80;97.30;;;;;;4977968;28;20766;-80
2022/04/15 11:05:42;;;;;;;6.80;4.23;;;10.90;97.30;;;;;;4977403;28;20433;-79
2022/04/15 11:08:13;;;;;;;6.40;4.00;;;11.10;97.30;;;;;;5008781;28;20806;-79
2022/04/15 11:10:59;;;;;;;5.13;3.47;;;11.20;97.30;;;;;;5008430;28;20410;-79
2022/04/15 11:13:27;;;;;;;8.57;4.63;;;11.00;97.30;;;;;;4975937;28;20886;-79
2022/04/15 11:16:16;;;;;;;6.70;4.60;;;10.90;97.30;;;;;;5010271;28;20642;-79
2022/04/15 11:18:51;;;;;;;6.33;4.23;;;10.70;97.30;;;;;;5009366;28;20417;-78
2022/04/15 11:21:19;;;;;;;7.17;4.60;;;10.60;97.30;;;;;;5008816;28;20411;-79
2022/04/15 11:23:51;;;;;;;9.10;6.20;;;10.60;97.30;;;;;;4976607;28;20816;-79
2022/04/15 11:26:17;;;;;;;8.33;4.63;;;10.60;97.30;;;;;;4976233;28;20422;-80
2022/04/15 11:28:50;;;;;;;8.17;4.93;;;10.70;97.30;;;;;;4976286;28;20745;-79
2022/04/15 11:31:24;;;;;;;9.07;5.13;;;10.80;97.30;;;;;;4975803;28;20461;-79
2022/04/15 11:33:50;;;;;;;5.60;4.27;;;10.90;97.30;;;;;;4975575;28;20444;-79
2022/04/15 11:36:18;;;;;;;6.13;4.30;;;10.80;97.30;;;;;;4976593;28;20410;-79
2022/04/15 11:38:45;;;;;;;7.30;4.57;;;10.80;97.30;;;;;;4975983;28;20414;-79
2022/04/15 11:41:16;;;;;;;8.23;4.80;;;10.80;97.30;;;;;;4975998;28;20450;-80
2022/04/15 11:43:41;;;;;;;7.67;4.73;;;10.70;97.30;;;;;;4976189;28;20442;-78
2022/04/15 11:46:08;;;;;;;7.50;4.43;;;10.70;97.30;;;;;;4977572;28;20938;-80
2022/04/15 11:48:34;;;;;;;7.20;3.90;;;10.60;97.30;;;;;;4975830;28;20246;-79
2022/04/15 11:50:59;;;;;;;9.23;6.03;;;10.50;97.30;;;;;;4976578;28;20493;-80
2022/04/15 11:53:25;;;;;;;10.53;5.77;;;10.50;97.30;;;;;;4977159;28;20716;-80
2022/04/15 11:55:56;;;;;;;10.43;5.60;;;10.50;97.30;;;;;;4978241;28;20645;-79
2022/04/15 11:58:23;;;;;;;8.63;5.50;;;10.50;97.30;;;;;;4975738;28;20205;-79
2022/04/15 12:00:58;;;;;;;8.83;5.63;;;10.40;97.30;;;;;;4975717;28;20431;-81
2022/04/15 12:03:24;;;;;;;7.40;5.20;;;10.40;97.30;;;;;;4976001;28;20480;-78
2022/04/15 12:05:53;;;;;;;7.93;5.47;;;10.40;97.30;;;;;;4975816;28;20526;-80
2022/04/15 12:08:19;;;;;;;11.67;5.47;;;10.40;97.30;;;;;;4975472;28;20490;-80
2022/04/15 12:10:47;;;;;;;9.60;5.90;;;10.40;97.30;;;;;;4975793;28;20425;-78
2022/04/15 12:13:13;;;;;;;7.77;5.90;;;10.40;97.30;;;;;;4975794;28;20422;-80
2022/04/15 12:15:39;;;;;;;8.40;5.00;;;10.40;97.30;;;;;;4974628;28;20960;-80
2022/04/15 12:18:05;;;;;;;12.87;5.23;;;10.40;97.30;;;;;;5007888;28;20426;-80
2022/04/15 12:20:38;;;;;;;9.63;5.80;;;10.40;97.30;;;;;;4973640;28;20449;-80
2022/04/15 12:23:04;;;;;;;9.47;5.07;;;10.30;97.30;;;;;;4974941;28;20476;-80
2022/04/15 12:26:05;;;;;;;8.87;5.53;;;10.30;97.30;;;;;;4975046;28;20530;-80
2022/04/15 12:31:00;;;;;;;8.97;5.73;;;10.20;97.30;;;;;;4976897;28;20465;-81
2022/04/15 12:33:26;;;;;;;9.63;6.03;;;10.20;97.30;;;;;;4975091;28;20413;-80
2022/04/15 12:36:04;;;;;;;11.47;5.70;;;10.20;97.30;;;;;;4974885;28;20422;-81
2022/04/15 12:38:50;;;;;;;10.63;6.50;;;10.20;97.30;;;;;;4972959;28;20748;-80
2022/04/15 12:41:15;;;;;;;13.40;6.80;;;10.20;97.30;;;;;;4972363;28;20422;-79
2022/04/15 12:43:41;;;;;;;12.50;7.00;;;10.30;97.30;;;;;;4972391;28;20438;-79
2022/04/15 12:46:16;;;;;;;12.07;7.30;;;10.40;97.30;;;;;;4972872;28;20187;-80
2022/04/15 12:48:51;;;;;;;12.83;7.07;;;10.40;97.30;;;;;;4972490;28;20219;-80